createdAt,value
2023-04-16T00:01:23.686Z,7.43
2023-04-16T00:05:01.512Z,7.41
2023-04-16T00:08:39.255Z,7.40
2023-04-16T00:12:16.972Z,7.38
2023-04-16T00:15:54.139Z,7.35
2023-04-16T00:19:31.890Z,7.33
2023-04-16T00:23:09.755Z,7.30
2023-04-16T00:26:47.302Z,7.27
2023-04-16T00:30:25.119Z,7.25
2023-04-16T00:34:02.550Z,7.25
2023-04-16T00:37:40.475Z,7.26
2023-04-16T00:41:18.160Z,7.27
2023-04-16T00:44:55.592Z,7.28
2023-04-16T00:48:35.030Z,7.28
2023-04-16T00:52:12.259Z,7.26
2023-04-16T00:55:48.638Z,7.25
2023-04-16T00:59:27.770Z,7.24
2023-04-16T01:03:05.429Z,7.25
2023-04-16T01:06:41.627Z,7.26
2023-04-16T01:10:19.393Z,7.26
2023-04-16T01:13:57.174Z,7.25
2023-04-16T01:17:34.682Z,7.25
2023-04-16T01:21:12.439Z,7.24
2023-04-16T01:24:50.163Z,7.23
2023-04-16T01:28:27.897Z,7.23
2023-04-16T01:32:05.784Z,7.22
2023-04-16T01:35:43.120Z,7.19
2023-04-16T01:39:21.125Z,7.16
2023-04-16T01:43:00.704Z,7.15
2023-04-16T01:46:37.915Z,7.13
2023-04-16T01:50:14.157Z,7.11
2023-04-16T01:53:51.840Z,7.09
2023-04-16T01:57:29.869Z,7.07
2023-04-16T02:01:07.071Z,7.06
2023-04-16T02:04:45.975Z,7.05
2023-04-16T02:08:22.689Z,7.05
2023-04-16T02:12:00.471Z,7.04
2023-04-16T02:15:37.882Z,7.03
2023-04-16T02:19:14.979Z,7.05
2023-04-16T02:22:53.039Z,7.05
2023-04-16T02:26:32.770Z,7.01
2023-04-16T02:30:09.074Z,6.99
2023-04-16T02:33:46.004Z,6.98
2023-04-16T02:37:23.814Z,6.96
2023-04-16T02:41:01.312Z,6.95
2023-04-16T02:44:39.200Z,6.94
2023-04-16T02:48:16.433Z,6.93
2023-04-16T02:51:54.468Z,6.92
2023-04-16T02:55:31.935Z,6.92
2023-04-16T02:59:10.106Z,6.91
2023-04-16T03:02:47.159Z,6.90
2023-04-16T03:06:26.295Z,6.88
2023-04-16T03:10:02.753Z,6.89
2023-04-16T03:13:40.270Z,6.86
2023-04-16T03:17:18.139Z,6.85
2023-04-16T03:20:55.778Z,6.85
2023-04-16T03:24:33.191Z,6.83
2023-04-16T03:28:11.122Z,6.81
2023-04-16T03:31:48.684Z,6.79
2023-04-16T03:35:26.180Z,6.79
2023-04-16T03:39:03.967Z,6.78
2023-04-16T03:42:41.941Z,6.77
2023-04-16T03:46:19.166Z,6.76
2023-04-16T03:49:57.336Z,6.76
2023-04-16T03:53:34.561Z,6.75
2023-04-16T03:57:12.299Z,6.76
2023-04-16T04:00:52.040Z,6.75
2023-04-16T04:04:28.007Z,6.75
2023-04-16T04:08:05.959Z,6.75
2023-04-16T04:11:44.055Z,6.75
2023-04-16T04:15:20.805Z,6.76
2023-04-16T04:19:00.267Z,6.74
2023-04-16T04:22:36.173Z,6.74
2023-04-16T04:26:13.897Z,6.74
2023-04-16T04:29:51.427Z,6.75
2023-04-16T04:33:29.229Z,6.75
2023-04-16T04:37:06.890Z,6.76
2023-04-16T04:40:44.462Z,6.75
2023-04-16T04:44:22.436Z,6.73
2023-04-16T04:47:59.921Z,6.72
2023-04-16T04:51:37.643Z,6.72
2023-04-16T04:55:16.273Z,6.74
2023-04-16T04:58:52.838Z,6.72
2023-04-16T05:02:31.432Z,6.71
2023-04-16T05:06:08.465Z,6.71
2023-04-16T05:09:45.932Z,6.71
2023-04-16T05:13:23.554Z,6.70
2023-04-16T05:17:01.423Z,6.70
2023-04-16T05:20:39.148Z,6.71
2023-04-16T05:24:16.603Z,6.71
2023-04-16T05:27:55.146Z,6.72
2023-04-16T05:31:32.018Z,6.72
2023-04-16T05:35:10.090Z,6.71
2023-04-16T05:38:47.593Z,6.71
2023-04-16T05:42:24.596Z,6.73
2023-04-16T05:46:02.961Z,6.76
2023-04-16T05:49:40.189Z,6.78
2023-04-16T05:53:19.171Z,6.78
2023-04-16T05:56:55.878Z,6.80
2023-04-16T06:00:34.225Z,6.81
2023-04-16T06:04:11.236Z,6.81
2023-04-16T06:07:49.071Z,6.82
2023-04-16T06:11:27.812Z,6.84
2023-04-16T06:15:04.552Z,6.86
2023-04-16T06:18:41.534Z,6.88
2023-04-16T06:22:19.523Z,6.91
2023-04-16T06:25:57.579Z,6.94
2023-04-16T06:29:41.079Z,6.99
2023-04-16T06:33:12.760Z,7.02
2023-04-16T06:36:50.270Z,7.07
2023-04-16T06:40:28.040Z,7.11
2023-04-16T06:44:06.132Z,7.17
2023-04-16T06:47:43.297Z,7.23
2023-04-16T06:51:21.065Z,7.30
2023-04-16T06:54:58.991Z,7.38
2023-04-16T06:58:36.658Z,7.44
2023-04-16T07:02:14.143Z,7.50
2023-04-16T07:05:51.956Z,7.58
2023-04-16T07:09:29.892Z,7.66
2023-04-16T07:13:06.976Z,7.77
2023-04-16T07:16:44.630Z,7.84
2023-04-16T07:20:22.359Z,7.89
2023-04-16T07:23:59.994Z,7.95
2023-04-16T07:27:37.663Z,7.99
2023-04-16T07:31:15.767Z,8.02
2023-04-16T07:34:53.235Z,8.09
2023-04-16T07:38:30.780Z,8.21
2023-04-16T07:42:08.484Z,8.36
2023-04-16T07:45:46.161Z,8.50
2023-04-16T07:49:23.628Z,8.60
2023-04-16T07:53:01.785Z,8.66
2023-04-16T07:56:39.006Z,8.71
2023-04-16T08:00:17.095Z,8.79
2023-04-16T08:03:54.644Z,8.86
2023-04-16T08:07:34.458Z,8.94
2023-04-16T08:11:10.043Z,9.01
2023-04-16T08:14:48.008Z,9.12
2023-04-16T08:18:25.101Z,9.25
2023-04-16T08:22:02.773Z,9.41
2023-04-16T08:25:40.529Z,9.56
2023-04-16T08:29:18.293Z,9.87
2023-04-16T08:32:56.123Z,10.19
2023-04-16T08:36:52.181Z,10.50
2023-04-16T08:40:12.889Z,10.71
2023-04-16T08:43:54.382Z,10.86
2023-04-16T08:47:32.050Z,10.91
2023-04-16T08:51:07.884Z,10.98
2023-04-16T08:54:46.617Z,11.10
2023-04-16T08:58:22.460Z,11.19
2023-04-16T09:01:59.745Z,11.25
2023-04-16T09:05:35.643Z,11.26
2023-04-16T09:09:13.229Z,11.30
2023-04-16T09:12:50.257Z,11.68
2023-04-16T09:16:33.760Z,12.13
2023-04-16T09:20:11.299Z,12.48
2023-04-16T09:23:43.967Z,12.71
2023-04-16T09:27:24.706Z,12.87
2023-04-16T09:31:16.079Z,13.13
2023-04-16T09:34:55.089Z,13.26
2023-04-16T09:38:14.006Z,13.32
2023-04-16T09:41:54.838Z,13.60
2023-04-16T09:45:33.103Z,13.89
2023-04-16T09:49:19.453Z,14.11
2023-04-16T09:52:49.822Z,14.19
2023-04-16T09:56:26.358Z,14.17
2023-04-16T10:00:06.527Z,14.17
2023-04-16T10:03:40.498Z,14.24
2023-04-16T10:07:15.684Z,14.30
2023-04-16T10:10:56.675Z,14.27
2023-04-16T10:14:31.606Z,14.28
2023-04-16T10:18:08.652Z,14.29
2023-04-16T10:21:47.144Z,14.32
2023-04-16T10:25:24.592Z,14.42
2023-04-16T10:29:02.705Z,14.63
2023-04-16T10:32:40.138Z,14.80
2023-04-16T10:36:23.753Z,15.08
2023-04-16T10:39:54.563Z,15.27
2023-04-16T10:43:34.463Z,15.29
2023-04-16T10:47:12.356Z,15.26
2023-04-16T10:50:58.218Z,15.15
2023-04-16T10:54:27.424Z,15.13
2023-04-16T10:58:02.765Z,15.24
2023-04-16T11:01:46.048Z,15.31
2023-04-16T11:05:24.616Z,15.31
2023-04-16T11:08:56.881Z,15.42
2023-04-16T11:16:16.850Z,15.65
2023-04-16T11:19:50.832Z,15.80
2023-04-16T11:23:28.044Z,15.88
2023-04-16T11:27:05.413Z,15.91
2023-04-16T11:30:43.300Z,15.81
2023-04-16T11:34:21.558Z,15.73
2023-04-16T11:37:58.909Z,15.64
2023-04-16T11:41:49.791Z,15.56
2023-04-16T11:45:14.156Z,15.50
2023-04-16T11:48:54.029Z,15.41
2023-04-16T11:52:33.818Z,15.30
2023-04-16T11:56:07.412Z,15.22
2023-04-16T12:00:01.673Z,15.08
2023-04-16T12:03:44.353Z,14.92
2023-04-16T12:07:06.917Z,14.71
2023-04-16T12:10:53.845Z,14.53
2023-04-16T12:14:15.679Z,14.40
2023-04-16T12:18:08.118Z,14.27
2023-04-16T12:21:50.527Z,14.14
2023-04-16T12:25:13.277Z,14.03
2023-04-16T12:28:45.924Z,14.04
2023-04-16T12:32:23.718Z,13.98
2023-04-16T12:36:02.247Z,13.83
2023-04-16T12:39:39.018Z,13.70
2023-04-16T12:43:16.599Z,13.64
2023-04-16T12:46:56.687Z,13.49
2023-04-16T12:50:32.004Z,13.24
2023-04-16T12:54:09.976Z,13.05
2023-04-16T12:57:49.017Z,12.90
2023-04-16T13:01:25.799Z,12.68
2023-04-16T13:05:02.785Z,12.49
2023-04-16T13:08:42.025Z,12.35
2023-04-16T13:12:19.009Z,12.24
2023-04-16T13:15:55.977Z,12.11
2023-04-16T13:19:33.652Z,12.06
2023-04-16T13:23:12.100Z,11.89
2023-04-16T13:26:48.819Z,11.70
2023-04-16T13:30:26.854Z,11.63
2023-04-16T13:34:05.058Z,11.52
2023-04-16T13:37:42.138Z,11.47
2023-04-16T13:41:19.578Z,11.45
2023-04-16T13:44:58.495Z,11.38
2023-04-16T13:48:35.190Z,11.30
2023-04-16T13:52:12.586Z,11.29
2023-04-16T13:55:51.226Z,11.38
2023-04-16T13:59:27.910Z,11.48
2023-04-16T14:03:07.071Z,11.57
2023-04-16T14:06:43.167Z,11.60
2023-04-16T14:10:21.385Z,11.54
2023-04-16T14:13:58.629Z,11.49
2023-04-16T14:17:37.471Z,11.44
2023-04-16T14:21:13.700Z,11.41
2023-04-16T14:24:51.402Z,11.39
2023-04-16T14:28:29.392Z,11.34
2023-04-16T14:32:07.116Z,11.28
2023-04-16T14:35:45.098Z,11.23
2023-04-16T14:39:22.712Z,11.27
2023-04-16T14:43:00.126Z,11.37
2023-04-16T14:46:38.847Z,11.52
2023-04-16T14:50:15.904Z,11.64
2023-04-16T14:53:53.242Z,11.72
2023-04-16T14:57:31.115Z,11.69
2023-04-16T15:01:09.567Z,11.67
2023-04-16T15:04:46.398Z,11.66
2023-04-16T15:08:24.829Z,11.68
2023-04-16T15:12:01.657Z,11.64
2023-04-16T15:15:39.414Z,11.64
2023-04-16T15:19:17.890Z,11.62
2023-04-16T15:22:54.674Z,11.57
2023-04-16T15:26:32.566Z,11.48
2023-04-16T15:30:10.767Z,11.41
2023-04-16T15:33:48.642Z,11.33
2023-04-16T15:37:25.064Z,11.29
2023-04-16T15:41:03.118Z,11.26
2023-04-16T15:44:40.899Z,11.23
2023-04-16T15:48:18.238Z,11.21
2023-04-16T15:51:56.636Z,11.18
2023-04-16T15:55:33.714Z,11.16
2023-04-16T15:59:11.838Z,11.14
2023-04-16T16:03:09.264Z,11.09
2023-04-16T16:06:27.558Z,11.00
2023-04-16T16:10:06.897Z,10.90
2023-04-16T16:13:44.123Z,10.82
2023-04-16T16:17:20.784Z,10.77
2023-04-16T16:20:58.551Z,10.63
2023-04-16T16:24:35.273Z,10.45
2023-04-16T16:28:12.825Z,10.30
2023-04-16T16:32:10.777Z,10.19
2023-04-16T16:35:28.229Z,10.07
2023-04-16T16:39:05.924Z,9.91
2023-04-16T16:42:43.738Z,9.78
2023-04-16T16:46:21.636Z,9.68
2023-04-16T16:50:01.324Z,9.62
2023-04-16T16:53:36.793Z,9.56
2023-04-16T16:57:15.629Z,9.45
2023-04-16T17:00:52.100Z,9.35
2023-04-16T17:04:29.613Z,9.27
2023-04-16T17:08:07.254Z,9.23
2023-04-16T17:11:45.114Z,9.17
2023-04-16T17:15:22.865Z,9.11
2023-04-16T17:19:01.493Z,9.06
2023-04-16T17:22:39.476Z,9.01
2023-04-16T17:26:15.459Z,8.98
2023-04-16T17:30:00.221Z,8.92
2023-04-16T17:33:31.327Z,8.89
2023-04-16T17:37:08.564Z,8.89
2023-04-16T17:40:46.292Z,8.88
2023-04-16T17:44:25.840Z,8.89
2023-04-16T17:48:01.817Z,8.87
2023-04-16T17:51:39.029Z,8.81
2023-04-16T17:55:17.180Z,8.72
2023-04-16T17:58:54.698Z,8.66
2023-04-16T18:02:52.289Z,8.63
2023-04-16T18:06:10.218Z,8.59
2023-04-16T18:09:47.987Z,8.56
2023-04-16T18:13:25.614Z,8.52
2023-04-16T18:17:06.169Z,8.52
2023-04-16T18:20:41.391Z,8.50
2023-04-16T18:24:18.777Z,8.45
2023-04-16T18:27:57.738Z,8.42
2023-04-16T18:31:33.889Z,8.38
2023-04-16T18:35:12.054Z,8.35
2023-04-16T18:39:00.191Z,8.39
2023-04-16T18:42:29.605Z,8.44
2023-04-16T18:46:04.528Z,8.47
2023-04-16T18:49:42.623Z,8.52
2023-04-16T18:53:19.930Z,8.57
2023-04-16T18:56:59.672Z,8.58
2023-04-16T19:00:36.160Z,8.60
2023-04-16T19:04:13.179Z,8.64
2023-04-16T19:07:50.907Z,8.63
2023-04-16T19:11:28.456Z,8.53
2023-04-16T19:15:06.608Z,8.43
2023-04-16T19:18:43.793Z,8.38
2023-04-16T19:22:21.359Z,8.37
2023-04-16T19:25:58.956Z,8.27
2023-04-16T19:29:37.246Z,8.15
2023-04-16T19:33:14.332Z,8.01
2023-04-16T19:36:52.381Z,7.92
2023-04-16T19:40:49.040Z,7.86
2023-04-16T19:44:07.889Z,7.85
2023-04-16T19:47:45.219Z,7.85
2023-04-16T19:51:23.306Z,7.82
2023-04-16T19:55:00.866Z,7.78
2023-04-16T19:58:40.386Z,7.74
2023-04-16T20:02:16.001Z,7.69
2023-04-16T20:05:53.736Z,7.66
2023-04-16T20:09:31.245Z,7.65
2023-04-16T20:13:12.303Z,7.65
2023-04-16T20:16:46.555Z,7.63
2023-04-16T20:20:24.364Z,7.61
2023-04-16T20:24:02.025Z,7.61
2023-04-16T20:27:39.448Z,7.60
2023-04-16T20:31:17.259Z,7.64
2023-04-16T20:34:57.920Z,7.63
2023-04-16T20:38:34.305Z,7.62
2023-04-16T20:42:10.720Z,7.60
2023-04-16T20:45:50.212Z,7.58
2023-04-16T20:49:25.656Z,7.55
2023-04-16T20:53:03.805Z,7.58
2023-04-16T20:56:41.942Z,7.62
2023-04-16T21:00:18.588Z,7.68
2023-04-16T21:07:34.080Z,7.76
2023-04-16T21:11:12.680Z,7.78
2023-04-16T21:14:49.802Z,7.84
2023-04-16T21:18:27.056Z,7.91
2023-04-16T21:22:04.940Z,7.96
2023-04-16T21:25:42.411Z,7.98
2023-04-16T21:29:20.208Z,8.06
2023-04-16T21:32:57.952Z,8.14
2023-04-16T21:36:35.755Z,8.23
2023-04-16T21:40:13.442Z,8.30
2023-04-16T21:43:51.057Z,8.32
2023-04-16T21:47:28.485Z,8.34
2023-04-16T21:51:06.707Z,8.34
2023-04-16T21:54:44.339Z,8.36
2023-04-16T21:58:21.672Z,8.39
2023-04-16T22:01:59.046Z,8.41
2023-04-16T22:05:37.524Z,8.35
2023-04-16T22:09:16.601Z,8.28
2023-04-16T22:12:55.005Z,8.24
2023-04-16T22:16:30.201Z,8.17
2023-04-16T22:20:11.629Z,8.11
2023-04-16T22:23:45.820Z,8.09
2023-04-16T22:27:23.378Z,8.06
2023-04-16T22:31:00.407Z,8.08
2023-04-16T22:34:38.598Z,8.16
2023-04-16T22:38:16.688Z,8.24
2023-04-16T22:41:53.604Z,8.26
2023-04-16T22:45:31.836Z,8.25
2023-04-16T22:49:08.918Z,8.22
2023-04-16T22:52:46.844Z,8.19
2023-04-16T22:56:28.847Z,8.19
2023-04-16T23:00:01.982Z,8.15
2023-04-16T23:03:39.954Z,8.15
2023-04-16T23:07:17.301Z,8.15
2023-04-16T23:10:55.145Z,8.12
2023-04-16T23:14:32.801Z,8.11
2023-04-16T23:18:10.593Z,8.12
2023-04-16T23:21:48.120Z,8.08
2023-04-16T23:25:25.708Z,8.03
2023-04-16T23:29:03.464Z,8.01
2023-04-16T23:32:41.220Z,7.99
2023-04-16T23:36:18.656Z,7.97
2023-04-16T23:39:56.381Z,7.95
2023-04-16T23:43:35.193Z,7.95
2023-04-16T23:47:11.887Z,7.95
2023-04-16T23:50:49.521Z,7.93
2023-04-16T23:54:27.643Z,7.93
2023-04-16T23:58:04.720Z,7.94
